createdAt,value
2019-03-24T00:01:26.585Z,85.96
2019-03-24T00:03:57.201Z,85.87
2019-03-24T00:06:27.783Z,86.31
2019-03-24T00:08:58.387Z,86.21
2019-03-24T00:11:28.965Z,86.64
2019-03-24T00:13:59.525Z,87.00
2019-03-24T00:16:30.127Z,87.62
2019-03-24T00:19:00.615Z,86.99
2019-03-24T00:21:31.164Z,86.72
2019-03-24T00:24:01.900Z,86.18
2019-03-24T00:26:32.433Z,87.11
2019-03-24T00:29:03.043Z,88.08
2019-03-24T00:31:33.583Z,87.10
2019-03-24T00:34:04.139Z,87.37
2019-03-24T00:36:34.680Z,87.73
2019-03-24T00:39:07.152Z,87.35
2019-03-24T00:41:37.793Z,87.63
2019-03-24T00:44:08.332Z,87.95
2019-03-24T00:46:38.874Z,89.23
2019-03-24T00:49:09.454Z,89.01
2019-03-24T00:51:40.005Z,87.65
2019-03-24T00:54:10.591Z,88.28
2019-03-24T00:56:41.102Z,88.18
2019-03-24T00:59:11.669Z,88.90
2019-03-24T01:01:42.217Z,88.70
2019-03-24T01:04:12.804Z,87.44
2019-03-24T01:06:43.397Z,86.70
2019-03-24T01:09:13.994Z,86.62
2019-03-24T01:11:44.529Z,87.27
2019-03-24T01:14:15.119Z,87.34
2019-03-24T01:16:45.655Z,88.77
2019-03-24T01:19:16.232Z,87.96
2019-03-24T01:21:46.786Z,87.51
2019-03-24T01:24:17.367Z,88.33
2019-03-24T01:26:47.925Z,88.10
2019-03-24T01:29:18.499Z,87.70
2019-03-24T01:31:49.027Z,88.08
2019-03-24T01:34:19.609Z,89.47
2019-03-24T01:36:50.171Z,89.36
2019-03-24T01:39:20.750Z,88.18
2019-03-24T01:41:51.325Z,88.60
2019-03-24T01:44:21.912Z,87.84
2019-03-24T01:46:52.432Z,88.08
2019-03-24T01:49:22.993Z,87.52
2019-03-24T01:51:53.543Z,88.36
2019-03-24T01:54:24.624Z,88.71
2019-03-24T01:56:55.146Z,88.72
2019-03-24T01:59:25.999Z,88.43
2019-03-24T02:01:56.641Z,89.58
2019-03-24T02:04:27.221Z,88.68
2019-03-24T02:06:57.745Z,88.50
2019-03-24T02:09:28.425Z,87.60
2019-03-24T02:11:58.943Z,87.79
2019-03-24T02:14:29.502Z,88.13
2019-03-24T02:17:00.061Z,88.06
2019-03-24T02:19:30.634Z,87.57
2019-03-24T02:22:01.194Z,87.53
2019-03-24T02:24:31.887Z,87.30
2019-03-24T02:27:02.508Z,86.98
2019-03-24T02:29:33.076Z,87.54
2019-03-24T02:32:03.653Z,89.15
2019-03-24T02:34:34.264Z,87.82
2019-03-24T02:37:04.791Z,88.08
2019-03-24T02:39:35.468Z,87.89
2019-03-24T02:42:06.012Z,87.46
2019-03-24T02:44:36.671Z,87.61
2019-03-24T02:47:07.201Z,87.59
2019-03-24T02:49:37.790Z,87.33
2019-03-24T02:52:08.312Z,87.65
2019-03-24T02:54:38.862Z,87.63
2019-03-24T02:57:09.432Z,87.43
2019-03-24T02:59:40.008Z,87.32
2019-03-24T03:02:10.637Z,87.29
2019-03-24T03:04:41.238Z,87.30
2019-03-24T03:07:11.909Z,87.19
2019-03-24T03:09:42.575Z,87.22
2019-03-24T03:12:13.167Z,87.33
2019-03-24T03:14:43.757Z,87.09
2019-03-24T03:17:14.457Z,87.33
2019-03-24T03:19:45.466Z,87.20
2019-03-24T03:22:16.177Z,87.23
2019-03-24T03:24:46.790Z,86.98
2019-03-24T03:27:17.384Z,86.74
2019-03-24T03:29:48.003Z,87.83
2019-03-24T03:32:18.618Z,88.20
2019-03-24T03:34:49.595Z,88.16
2019-03-24T03:37:20.262Z,87.92
2019-03-24T03:39:51.118Z,88.33
2019-03-24T03:42:21.700Z,88.44
2019-03-24T03:44:52.232Z,88.73
2019-03-24T03:47:22.942Z,88.12
2019-03-24T03:49:53.474Z,87.83
2019-03-24T03:52:24.110Z,87.62
2019-03-24T03:54:54.629Z,88.15
2019-03-24T03:57:25.242Z,87.63
2019-03-24T03:59:55.770Z,87.29
2019-03-24T04:02:26.431Z,87.55
2019-03-24T04:04:56.981Z,87.98
2019-03-24T04:07:27.551Z,88.04
2019-03-24T04:09:58.083Z,87.85
2019-03-24T04:12:28.640Z,87.74
2019-03-24T04:14:59.151Z,88.04
2019-03-24T04:17:29.709Z,87.33
2019-03-24T04:20:00.559Z,87.19
2019-03-24T04:22:31.205Z,87.09
2019-03-24T04:25:01.791Z,86.18
2019-03-24T04:27:32.334Z,86.71
2019-03-24T04:30:02.866Z,86.77
2019-03-24T04:32:33.390Z,86.86
2019-03-24T04:35:03.926Z,87.67
2019-03-24T04:37:34.485Z,87.21
2019-03-24T04:40:05.089Z,86.83
2019-03-24T04:42:35.694Z,87.04
2019-03-24T04:45:06.430Z,87.23
2019-03-24T04:47:36.996Z,86.25
2019-03-24T04:50:07.891Z,86.59
2019-03-24T04:52:38.479Z,86.71
2019-03-24T04:55:09.571Z,86.63
2019-03-24T04:57:40.144Z,86.76
2019-03-24T05:00:11.787Z,86.97
2019-03-24T05:02:42.362Z,87.39
2019-03-24T05:05:12.943Z,87.98
2019-03-24T05:07:43.619Z,89.19
2019-03-24T05:10:26.275Z,87.90
2019-03-24T05:12:57.003Z,88.66
2019-03-24T05:15:27.522Z,89.26
2019-03-24T05:17:58.077Z,89.71
2019-03-24T05:20:28.603Z,88.95
2019-03-24T05:22:59.176Z,88.02
2019-03-24T05:25:29.733Z,88.76
2019-03-24T05:28:00.301Z,88.10
2019-03-24T05:30:30.860Z,87.80
2019-03-24T05:33:02.749Z,88.23
2019-03-24T05:35:33.270Z,88.34
2019-03-24T05:38:03.847Z,88.23
2019-03-24T05:40:34.449Z,87.74
2019-03-24T05:43:05.013Z,88.27
2019-03-24T05:45:35.537Z,89.18
2019-03-24T05:48:06.111Z,89.30
2019-03-24T05:50:36.637Z,87.91
2019-03-24T05:53:07.203Z,87.55
2019-03-24T05:55:37.707Z,87.11
2019-03-24T05:58:08.283Z,86.96
2019-03-24T06:00:38.857Z,87.96
2019-03-24T06:03:09.661Z,87.93
2019-03-24T06:05:40.405Z,88.11
2019-03-24T06:08:14.025Z,88.11
2019-03-24T06:10:44.591Z,87.98
2019-03-24T06:13:15.255Z,87.57
2019-03-24T06:15:45.771Z,87.63
2019-03-24T06:18:26.854Z,87.46
2019-03-24T06:20:57.491Z,87.44
2019-03-24T06:23:28.061Z,87.67
2019-03-24T06:25:58.657Z,87.41
2019-03-24T06:28:29.227Z,88.35
2019-03-24T06:31:01.748Z,87.71
2019-03-24T06:33:32.452Z,87.54
2019-03-24T06:36:03.004Z,87.83
2019-03-24T06:38:33.658Z,89.13
2019-03-24T06:41:04.362Z,89.60
2019-03-24T06:43:34.955Z,90.02
2019-03-24T06:46:05.744Z,90.24
2019-03-24T06:48:36.921Z,89.87
2019-03-24T06:51:07.604Z,90.04
2019-03-24T06:53:38.205Z,89.62
2019-03-24T06:56:09.043Z,88.69
2019-03-24T06:58:39.587Z,88.43
2019-03-24T07:01:10.138Z,90.30
2019-03-24T07:03:40.677Z,89.69
2019-03-24T07:06:11.279Z,90.13
2019-03-24T07:08:41.889Z,89.92
2019-03-24T07:11:13.874Z,90.27
2019-03-24T07:13:44.679Z,90.89
2019-03-24T07:16:15.287Z,91.12
2019-03-24T07:18:45.858Z,91.33
2019-03-24T07:21:16.423Z,91.40
2019-03-24T07:23:46.953Z,90.23
2019-03-24T07:26:25.853Z,89.53
2019-03-24T07:28:58.344Z,89.66
2019-03-24T07:31:28.924Z,89.42
2019-03-24T07:33:59.458Z,89.47
2019-03-24T07:36:30.051Z,89.27
2019-03-24T07:39:00.641Z,89.41
2019-03-24T07:41:31.216Z,90.91
2019-03-24T07:44:03.101Z,89.18
2019-03-24T07:46:33.632Z,89.19
2019-03-24T07:49:04.175Z,89.32
2019-03-24T07:51:34.764Z,89.40
2019-03-24T07:54:05.305Z,89.61
2019-03-24T07:56:35.881Z,88.53
2019-03-24T07:59:06.456Z,87.85
2019-03-24T08:01:37.062Z,88.83
2019-03-24T08:04:07.598Z,87.71
2019-03-24T08:06:38.196Z,87.82
2019-03-24T08:09:08.794Z,87.10
2019-03-24T08:11:39.358Z,86.71
2019-03-24T08:14:09.915Z,87.42
2019-03-24T08:16:40.656Z,86.89
2019-03-24T08:19:11.222Z,86.23
2019-03-24T08:21:41.862Z,85.61
2019-03-24T08:24:12.490Z,85.00
2019-03-24T08:26:43.082Z,85.15
2019-03-24T08:29:13.655Z,85.25
2019-03-24T08:31:44.262Z,85.95
2019-03-24T08:34:14.860Z,85.23
2019-03-24T08:36:45.486Z,85.72
2019-03-24T08:39:16.075Z,84.87
2019-03-24T08:41:46.704Z,84.22
2019-03-24T08:44:17.249Z,85.36
2019-03-24T08:46:47.826Z,84.92
2019-03-24T08:49:18.363Z,85.77
2019-03-24T08:51:51.211Z,84.42
2019-03-24T08:54:21.198Z,84.59
2019-03-24T08:56:51.963Z,83.32
2019-03-24T08:59:22.530Z,83.36
2019-03-24T09:01:53.157Z,83.43
2019-03-24T09:04:23.725Z,83.56
2019-03-24T09:06:54.363Z,82.31
2019-03-24T09:09:25.052Z,82.15
2019-03-24T09:11:55.666Z,81.14
2019-03-24T09:14:26.303Z,81.44
2019-03-24T09:16:56.913Z,80.79
2019-03-24T09:19:27.497Z,81.08
2019-03-24T09:21:59.077Z,80.44
2019-03-24T09:24:29.671Z,80.06
2019-03-24T09:27:00.273Z,81.25
2019-03-24T09:29:30.839Z,79.96
2019-03-24T09:32:01.909Z,79.77
2019-03-24T09:34:32.488Z,79.16
2019-03-24T09:37:03.133Z,80.64
2019-03-24T09:39:33.709Z,79.39
2019-03-24T09:42:04.302Z,79.33
2019-03-24T09:44:34.837Z,78.08
2019-03-24T09:47:05.423Z,77.19
2019-03-24T09:49:36.007Z,76.94
2019-03-24T09:52:06.616Z,75.29
2019-03-24T09:54:37.183Z,75.50
2019-03-24T09:57:08.616Z,75.91
2019-03-24T09:59:39.248Z,74.86
2019-03-24T10:02:09.833Z,76.06
2019-03-24T10:04:40.409Z,75.55
2019-03-24T10:07:11.061Z,74.25
2019-03-24T10:09:41.606Z,74.34
2019-03-24T10:12:12.222Z,74.89
2019-03-24T10:14:42.817Z,74.59
2019-03-24T10:17:13.499Z,76.11
2019-03-24T10:19:44.199Z,74.26
2019-03-24T10:22:14.802Z,75.68
2019-03-24T10:24:45.360Z,76.00
2019-03-24T10:27:16.055Z,75.05
2019-03-24T10:29:46.729Z,74.85
2019-03-24T10:32:17.348Z,74.71
2019-03-24T10:34:48.059Z,75.28
2019-03-24T10:37:18.715Z,74.10
2019-03-24T10:39:49.317Z,74.14
2019-03-24T10:42:19.959Z,74.57
2019-03-24T10:44:50.564Z,74.49
2019-03-24T10:47:21.233Z,74.74
2019-03-24T10:49:51.825Z,75.58
2019-03-24T10:52:22.512Z,75.07
2019-03-24T10:54:53.091Z,72.91
2019-03-24T10:57:23.699Z,72.62
2019-03-24T10:59:54.300Z,71.27
2019-03-24T11:02:24.936Z,72.27
2019-03-24T11:04:55.643Z,68.84
2019-03-24T11:07:26.373Z,68.40
2019-03-24T11:09:56.946Z,68.27
2019-03-24T11:12:27.564Z,70.58
2019-03-24T11:14:58.161Z,68.87
2019-03-24T11:17:28.781Z,69.05
2019-03-24T11:19:59.417Z,69.01
2019-03-24T11:22:30.066Z,70.10
2019-03-24T11:25:00.683Z,70.10
2019-03-24T11:27:31.358Z,68.89
2019-03-24T11:30:02.035Z,68.73
2019-03-24T11:32:32.675Z,69.75
2019-03-24T11:35:03.339Z,69.74
2019-03-24T11:37:34.012Z,67.90
2019-03-24T11:40:05.049Z,68.72
2019-03-24T11:42:35.686Z,69.31
2019-03-24T11:45:06.686Z,69.16
2019-03-24T11:47:37.288Z,68.59
2019-03-24T11:50:08.513Z,68.94
2019-03-24T11:52:39.103Z,67.78
2019-03-24T11:55:10.113Z,67.93
2019-03-24T11:57:40.731Z,66.80
2019-03-24T12:00:12.228Z,66.33
2019-03-24T12:02:42.904Z,67.55
2019-03-24T12:05:13.654Z,65.25
2019-03-24T12:07:44.292Z,64.43
2019-03-24T12:10:14.934Z,64.91
2019-03-24T12:12:45.516Z,62.72
2019-03-24T12:15:16.154Z,63.32
2019-03-24T12:17:46.758Z,62.78
2019-03-24T12:20:17.342Z,64.13
2019-03-24T12:22:47.903Z,64.25
2019-03-24T12:25:18.508Z,64.43
2019-03-24T12:27:49.098Z,64.71
2019-03-24T12:30:20.855Z,64.69
2019-03-24T12:32:51.402Z,64.15
2019-03-24T12:35:22.030Z,64.34
2019-03-24T12:37:52.620Z,65.10
2019-03-24T12:40:23.253Z,64.58
2019-03-24T12:42:53.883Z,65.44
2019-03-24T12:45:24.589Z,63.53
2019-03-24T12:47:55.183Z,64.03
2019-03-24T12:50:31.360Z,63.61
2019-03-24T12:52:58.079Z,63.34
2019-03-24T12:55:28.718Z,62.98
2019-03-24T12:58:04.075Z,62.92
2019-03-24T13:00:39.612Z,63.80
2019-03-24T13:03:10.205Z,65.08
2019-03-24T13:05:40.822Z,65.93
2019-03-24T13:08:15.782Z,65.34
2019-03-24T13:10:47.213Z,66.11
2019-03-24T13:13:17.872Z,66.67
2019-03-24T13:15:48.524Z,65.92
2019-03-24T13:18:19.212Z,65.47
2019-03-24T13:20:49.883Z,64.56
2019-03-24T13:23:20.491Z,63.93
2019-03-24T13:25:51.158Z,62.92
2019-03-24T13:28:21.741Z,63.36
2019-03-24T13:30:52.393Z,61.65
2019-03-24T13:33:23.020Z,61.35
2019-03-24T13:36:05.476Z,59.35
2019-03-24T13:38:36.108Z,57.90
2019-03-24T13:41:06.756Z,57.59
2019-03-24T13:43:37.397Z,56.14
2019-03-24T13:46:08.090Z,55.50
2019-03-24T13:48:38.732Z,53.22
2019-03-24T13:51:09.412Z,53.52
2019-03-24T13:53:40.059Z,54.19
2019-03-24T13:56:10.803Z,55.13
2019-03-24T13:58:41.496Z,55.69
2019-03-24T14:01:12.248Z,56.23
2019-03-24T14:03:42.858Z,57.19
2019-03-24T14:06:13.511Z,57.40
2019-03-24T14:08:44.233Z,57.05
2019-03-24T14:11:15.689Z,56.89
2019-03-24T14:13:46.334Z,55.23
2019-03-24T14:16:16.971Z,52.44
2019-03-24T14:18:47.596Z,52.02
2019-03-24T14:21:18.273Z,53.78
2019-03-24T14:23:48.916Z,52.84
2019-03-24T14:26:19.640Z,53.06
2019-03-24T14:28:50.332Z,54.41
2019-03-24T14:31:21.666Z,54.78
2019-03-24T14:33:52.339Z,55.72
2019-03-24T14:36:23.151Z,56.10
2019-03-24T14:38:53.742Z,56.46
2019-03-24T14:41:24.385Z,55.96
2019-03-24T14:43:55.001Z,56.09
2019-03-24T14:46:25.765Z,55.23
2019-03-24T14:48:56.382Z,55.11
2019-03-24T14:51:27.055Z,54.47
2019-03-24T14:53:57.701Z,54.42
2019-03-24T14:56:28.283Z,54.12
2019-03-24T14:58:58.877Z,54.46
2019-03-24T15:01:29.495Z,54.22
2019-03-24T15:04:00.087Z,53.93
2019-03-24T15:06:30.702Z,54.94
2019-03-24T15:09:01.299Z,55.22
2019-03-24T15:11:34.989Z,54.82
2019-03-24T15:14:06.016Z,54.88
2019-03-24T15:16:36.641Z,54.96
2019-03-24T15:19:07.257Z,55.53
2019-03-24T15:21:37.906Z,55.33
2019-03-24T15:24:08.509Z,54.44
2019-03-24T15:26:39.169Z,54.64
2019-03-24T15:29:09.748Z,54.49
2019-03-24T15:31:40.484Z,54.42
2019-03-24T15:34:11.173Z,55.27
2019-03-24T15:36:41.783Z,54.98
2019-03-24T15:39:12.507Z,55.31
2019-03-24T15:41:43.097Z,55.52
2019-03-24T15:44:14.072Z,54.95
2019-03-24T15:46:44.765Z,54.06
2019-03-24T15:49:15.399Z,54.16
2019-03-24T15:51:46.065Z,54.50
2019-03-24T15:54:16.683Z,54.67
2019-03-24T15:56:47.351Z,54.81
2019-03-24T15:59:18.019Z,54.65
2019-03-24T16:01:48.615Z,54.45
2019-03-24T16:04:19.239Z,54.94
2019-03-24T16:06:49.848Z,55.79
2019-03-24T16:09:20.483Z,55.95
2019-03-24T16:11:51.213Z,55.58
2019-03-24T16:14:21.850Z,55.38
2019-03-24T16:16:52.519Z,55.27
2019-03-24T16:19:23.141Z,55.09
2019-03-24T16:21:53.799Z,55.03
2019-03-24T16:24:24.447Z,55.14
2019-03-24T16:26:55.108Z,55.79
2019-03-24T16:29:25.712Z,56.10
2019-03-24T16:31:56.365Z,55.80
2019-03-24T16:34:26.997Z,56.26
2019-03-24T16:36:57.624Z,56.21
2019-03-24T16:39:28.252Z,56.18
2019-03-24T16:41:58.950Z,56.11
2019-03-24T16:44:29.558Z,56.10
2019-03-24T16:47:00.225Z,55.86
2019-03-24T16:49:30.923Z,56.10
2019-03-24T16:52:01.931Z,55.97
2019-03-24T16:54:32.520Z,56.07
2019-03-24T16:57:03.153Z,56.28
2019-03-24T16:59:33.775Z,55.90
2019-03-24T17:02:04.511Z,56.30
2019-03-24T17:04:35.141Z,56.02
2019-03-24T17:07:07.768Z,56.15
2019-03-24T17:09:38.402Z,56.38
2019-03-24T17:12:09.084Z,56.66
2019-03-24T17:14:42.410Z,56.20
2019-03-24T17:17:13.178Z,56.71
2019-03-24T17:19:43.770Z,56.99
2019-03-24T17:22:14.382Z,56.83
2019-03-24T17:24:44.964Z,56.52
2019-03-24T17:27:15.604Z,56.49
2019-03-24T17:29:46.258Z,56.65
2019-03-24T17:32:16.976Z,56.46
2019-03-24T17:34:47.622Z,56.48
2019-03-24T17:37:18.241Z,56.60
2019-03-24T17:39:48.857Z,56.83
2019-03-24T17:42:19.534Z,56.56
2019-03-24T17:44:50.104Z,57.00
2019-03-24T17:47:20.737Z,57.04
2019-03-24T17:49:51.464Z,57.06
2019-03-24T17:52:22.134Z,57.39
2019-03-24T17:54:52.710Z,57.47
2019-03-24T17:57:23.417Z,57.63
2019-03-24T17:59:54.036Z,57.69
2019-03-24T18:02:24.698Z,57.91
2019-03-24T18:04:55.378Z,57.89
2019-03-24T18:07:25.995Z,58.27
2019-03-24T18:09:56.620Z,58.93
2019-03-24T18:12:27.211Z,59.54
2019-03-24T18:14:57.900Z,59.23
2019-03-24T18:17:28.616Z,59.71
2019-03-24T18:19:59.590Z,60.62
2019-03-24T18:22:30.211Z,60.24
2019-03-24T18:25:00.912Z,60.36
2019-03-24T18:27:31.559Z,61.17
2019-03-24T18:30:02.716Z,61.18
2019-03-24T18:32:33.290Z,61.28
2019-03-24T18:35:04.427Z,61.63
2019-03-24T18:37:35.033Z,61.31
2019-03-24T18:40:06.640Z,61.74
2019-03-24T18:42:37.412Z,61.15
2019-03-24T18:45:09.807Z,61.23
2019-03-24T18:47:40.434Z,61.70
2019-03-24T18:50:11.477Z,61.09
2019-03-24T18:52:42.126Z,60.79
2019-03-24T18:55:13.651Z,61.52
2019-03-24T18:57:44.310Z,61.31
2019-03-24T19:00:15.356Z,61.61
2019-03-24T19:02:45.928Z,61.88
2019-03-24T19:05:16.649Z,62.31
2019-03-24T19:07:47.257Z,62.61
2019-03-24T19:10:18.544Z,62.77
2019-03-24T19:12:49.112Z,62.61
2019-03-24T19:15:20.158Z,62.90
2019-03-24T19:17:50.813Z,63.26
2019-03-24T19:20:21.607Z,62.78
2019-03-24T19:22:52.271Z,62.99
2019-03-24T19:25:22.848Z,63.09
2019-03-24T19:27:53.479Z,63.16
2019-03-24T19:30:37.889Z,63.28
2019-03-24T19:33:08.482Z,64.24
2019-03-24T19:35:39.229Z,64.02
2019-03-24T19:38:09.780Z,64.74
2019-03-24T19:40:40.526Z,65.03
2019-03-24T19:43:11.119Z,65.57
2019-03-24T19:45:41.796Z,65.62
2019-03-24T19:48:12.430Z,66.41
2019-03-24T19:50:43.079Z,67.39
2019-03-24T19:53:13.650Z,67.21
2019-03-24T19:55:44.372Z,67.69
2019-03-24T19:58:14.967Z,68.41
2019-03-24T20:00:45.597Z,68.42
2019-03-24T20:03:16.211Z,68.67
2019-03-24T20:05:46.895Z,68.67
2019-03-24T20:08:17.534Z,69.33
2019-03-24T20:10:48.189Z,69.11
2019-03-24T20:13:18.823Z,70.54
2019-03-24T20:15:49.546Z,70.84
2019-03-24T20:18:20.116Z,72.12
2019-03-24T20:20:52.097Z,72.20
2019-03-24T20:23:22.925Z,72.81
2019-03-24T20:25:53.551Z,73.33
2019-03-24T20:28:24.219Z,72.46
2019-03-24T20:30:54.835Z,72.48
2019-03-24T20:33:25.404Z,72.53
2019-03-24T20:35:56.019Z,72.21
2019-03-24T20:38:26.699Z,72.13
2019-03-24T20:40:57.413Z,72.03
2019-03-24T20:43:28.051Z,72.14
2019-03-24T20:45:58.673Z,71.65
2019-03-24T20:48:29.285Z,71.82
2019-03-24T20:50:59.941Z,71.43
2019-03-24T20:53:30.659Z,71.05
2019-03-24T20:56:02.771Z,71.20
2019-03-24T20:58:33.434Z,71.00
2019-03-24T21:01:05.989Z,71.04
2019-03-24T21:03:36.671Z,72.04
2019-03-24T21:06:10.160Z,71.39
2019-03-24T21:08:40.931Z,71.65
2019-03-24T21:11:11.627Z,72.28
2019-03-24T21:13:42.278Z,72.21
2019-03-24T21:16:13.149Z,72.30
2019-03-24T21:18:43.837Z,73.10
2019-03-24T21:21:14.502Z,73.77
2019-03-24T21:23:45.306Z,73.06
2019-03-24T21:26:15.884Z,73.51
2019-03-24T21:28:46.602Z,73.37
2019-03-24T21:31:17.195Z,73.11
2019-03-24T21:33:48.015Z,72.86
2019-03-24T21:36:18.864Z,73.67
2019-03-24T21:38:49.547Z,73.56
2019-03-24T21:41:20.124Z,73.59
2019-03-24T21:43:50.741Z,73.57
2019-03-24T21:46:21.375Z,73.59
2019-03-24T21:48:52.025Z,74.13
2019-03-24T21:51:22.655Z,73.41
2019-03-24T21:53:53.286Z,73.31
2019-03-24T21:56:23.883Z,73.71
2019-03-24T21:58:54.463Z,73.70
2019-03-24T22:01:25.056Z,72.72
2019-03-24T22:03:55.645Z,72.94
2019-03-24T22:06:26.261Z,73.21
2019-03-24T22:08:56.853Z,73.24
2019-03-24T22:11:27.397Z,73.56
2019-03-24T22:13:58.010Z,73.70
2019-03-24T22:16:28.617Z,74.06
2019-03-24T22:18:59.237Z,73.41
2019-03-24T22:21:29.809Z,73.61
2019-03-24T22:24:00.415Z,73.09
2019-03-24T22:26:30.975Z,73.41
2019-03-24T22:29:01.723Z,72.80
2019-03-24T22:31:32.280Z,73.05
2019-03-24T22:34:02.951Z,72.33
2019-03-24T22:36:33.596Z,72.44
2019-03-24T22:39:05.358Z,72.41
2019-03-24T22:41:35.971Z,72.24
2019-03-24T22:44:06.686Z,72.33
2019-03-24T22:46:37.369Z,71.73
2019-03-24T22:49:08.005Z,72.26
2019-03-24T22:51:38.603Z,72.10
2019-03-24T22:54:09.224Z,72.73
2019-03-24T22:56:39.862Z,72.29
2019-03-24T22:59:10.593Z,72.32
2019-03-24T23:01:41.173Z,72.76
2019-03-24T23:04:11.862Z,72.26
2019-03-24T23:06:42.451Z,72.44
2019-03-24T23:09:13.038Z,72.30
2019-03-24T23:11:43.637Z,73.00
2019-03-24T23:14:14.316Z,72.85
2019-03-24T23:16:44.917Z,73.11
2019-03-24T23:19:15.477Z,73.32
2019-03-24T23:21:46.122Z,73.55
2019-03-24T23:24:16.834Z,73.14
2019-03-24T23:26:47.478Z,73.71
2019-03-24T23:29:18.185Z,73.65
2019-03-24T23:31:48.844Z,73.86
2019-03-24T23:34:19.526Z,74.17
2019-03-24T23:36:50.182Z,74.45
2019-03-24T23:39:20.861Z,74.50
2019-03-24T23:41:51.490Z,74.58
2019-03-24T23:44:22.077Z,74.03
2019-03-24T23:46:52.744Z,74.12
2019-03-24T23:49:23.625Z,74.21
2019-03-24T23:51:54.222Z,74.12
2019-03-24T23:54:27.350Z,74.11
2019-03-24T23:56:57.156Z,73.89
2019-03-24T23:59:27.740Z,73.98
